This is the latest recevied weather packets stored in our database for station/object NM5PB-13. If no packets are shown the sender has not sent any weather packets the latest 10 day(s).
| Time | Temp. | Humidity | Pressure | Rain* | Wind** | Luminosity | Snow |
|---|---|---|---|---|---|---|---|
| 1777812474 | 10.56° C | 61% | 1010 hPa | 0 mm | - | - | - |
| 1777811567 | 10.56° C | 63% | 1010 hPa | 0 mm | - | - | - |
| 1777810662 | 10° C | 64% | 1011 hPa | 0 mm | - | - | - |
| 1777809759 | 9.44° C | 68% | 1011 hPa | 0 mm | - | - | - |
| 1777808856 | 9.44° C | 69% | 1011 hPa | 0 mm | - | - | - |
| 1777807941 | 9.44° C | 69% | 1011 hPa | 0 mm | - | - | - |
| 1777807024 | 10° C | 64% | 1012 hPa | 0 mm | - | - | - |
| 1777806109 | 10.56° C | 61% | 1012 hPa | 0 mm | - | - | - |
| 1777805199 | 10.56° C | 59% | 1012 hPa | 0 mm | - | - | - |
| 1777804297 | 11.11° C | 56% | 1012 hPa | 0 mm | - | - | - |
| 1777803382 | 11.11° C | 55% | 1012 hPa | 0 mm | - | - | - |
| 1777802464 | 11.11° C | 57% | 1012 hPa | 0 mm | - | - | - |
| 1777801551 | 11.11° C | 56% | 1012 hPa | 0 mm | - | - | - |
| 1777800642 | 11.11° C | 55% | 1012 hPa | 0 mm | - | - | - |
| 1777799738 | 11.67° C | 55% | 1013 hPa | 0 mm | - | - | - |
| 1777798823 | 11.67° C | 52% | 1013 hPa | 0 mm | - | - | - |
| 1777797906 | 12.22° C | 51% | 1013 hPa | 0 mm | - | - | - |
| 1777797004 | 12.22° C | 51% | 1013 hPa | 0 mm | - | - | - |
| 1777796098 | 12.22° C | 51% | 1013 hPa | 0 mm | - | - | - |
| 1777795192 | 12.22° C | 51% | 1013 hPa | 0 mm | - | - | - |
| 1777794286 | 11.11° C | 55% | 1013 hPa | 0 mm | - | - | - |
| 1777793381 | 11.11° C | 55% | 1013 hPa | 0 mm | - | - | - |
| 1777792478 | 11.11° C | 54% | 1013 hPa | 0 mm | - | - | - |
| 1777791575 | 11.11° C | 54% | 1013 hPa | 0 mm | - | - | - |
| 1777790667 | 11.11° C | 53% | 1013 hPa | 0 mm | - | - | - |
* Rain latest hour (hover to see other rain measurements)
** Current wind speed in m/s (hover to see current wind gust speed)